Time,TemperatureF,DewpointF,PressureIn,WindDirection,WindDirectionDegrees,WindSpeedMPH,WindSpeedGustMPH,Humidity,HourlyPrecipIn,Conditions,Clouds,dailyrainin,SoftwareType,DateUTC
2013-08-13 00:01:00,67.2,66.9,29.90,WNW,298,0.0,3.0,99,0.00,,,0.33,Wunderground v.1.15,2013-08-13 04:01:00,
2013-08-13 00:02:00,67.2,66.9,29.90,WNW,298,0.0,3.0,99,0.00,,,0.33,Wunderground v.1.15,2013-08-13 04:02:00,
2013-08-13 00:07:00,67.4,67.1,29.90,WNW,285,3.0,4.0,99,0.00,,,0.33,Wunderground v.1.15,2013-08-13 04:07:00,
2013-08-13 00:12:00,67.6,67.6,29.91,West,279,0.0,4.0,100,0.00,,,0.33,Wunderground v.1.15,2013-08-13 04:12:00,
2013-08-13 00:17:00,67.5,67.2,29.91,WNW,284,0.0,4.0,99,0.00,,,0.00,Wunderground v.1.15,2013-08-13 04:17:00,
2013-08-13 00:22:00,67.5,67.5,29.91,WNW,285,1.0,5.0,100,0.00,,,0.00,Wunderground v.1.15,2013-08-13 04:22:00,
2013-08-13 00:27:00,67.7,67.7,29.91,West,277,0.0,5.0,100,0.00,,,0.00,Wunderground v.1.15,2013-08-13 04:27:00,
2013-08-13 00:32:00,67.7,67.4,29.92,WNW,295,0.0,3.0,99,0.00,,,0.00,Wunderground v.1.15,2013-08-13 04:32:00,
2013-08-13 00:37:00,67.6,67.6,29.91,WNW,296,3.0,3.0,100,0.00,,,0.00,Wunderground v.1.15,2013-08-13 04:37:00,
2013-08-13 00:42:00,67.4,67.1,29.91,WNW,303,3.0,3.0,99,0.00,,,0.00,Wunderground v.1.15,2013-08-13 04:42:00,
2013-08-13 00:47:00,67.4,67.1,29.91,WNW,298,3.0,4.0,99,0.00,,,0.00,Wunderground v.1.15,2013-08-13 04:47:00,
2013-08-13 00:52:00,67.2,66.9,29.91,NW,319,1.0,6.0,99,0.00,,,0.00,Wunderground v.1.15,2013-08-13 04:52:00,
2013-08-13 00:57:00,66.9,66.6,29.91,WNW,302,3.0,6.0,99,0.00,,,0.00,Wunderground v.1.15,2013-08-13 04:57:00,
2013-08-13 01:02:00,66.7,66.4,29.91,West,276,6.0,8.0,99,0.00,,,0.01,Wunderground v.1.15,2013-08-13 05:02:00,
2013-08-13 01:07:00,66.8,66.2,29.91,WNW,296,6.0,9.0,98,0.00,,,0.01,Wunderground v.1.15,2013-08-13 05:07:00,
2013-08-13 01:12:00,67.0,66.4,29.91,WNW,298,2.0,7.0,98,0.00,,,0.01,Wunderground v.1.15,2013-08-13 05:12:00,
2013-08-13 01:17:00,67.1,66.2,29.91,NW,315,2.0,9.0,97,0.00,,,0.01,Wunderground v.1.15,2013-08-13 05:17:00,
2013-08-13 01:22:00,67.1,66.5,29.91,WNW,288,1.0,7.0,98,0.00,,,0.01,Wunderground v.1.15,2013-08-13 05:22:00,
2013-08-13 01:27:00,67.1,66.2,29.91,North,355,2.0,7.0,97,0.00,,,0.01,Wunderground v.1.15,2013-08-13 05:27:00,
2013-08-13 01:32:00,67.0,65.8,29.91,NW,311,2.0,5.0,96,0.00,,,0.01,Wunderground v.1.15,2013-08-13 05:32:00,
2013-08-13 01:37:00,67.0,66.1,29.91,NNW,336,0.0,5.0,97,0.00,,,0.01,Wunderground v.1.15,2013-08-13 05:37:00,
2013-08-13 01:42:00,67.0,65.8,29.91,NNW,332,0.0,6.0,96,0.00,,,0.01,Wunderground v.1.15,2013-08-13 05:42:00,
2013-08-13 01:47:00,66.8,65.9,29.92,WNW,286,3.0,6.0,97,0.00,,,0.01,Wunderground v.1.15,2013-08-13 05:47:00,
2013-08-13 01:52:00,66.9,66.0,29.92,NW,313,1.0,7.0,97,0.00,,,0.01,Wunderground v.1.15,2013-08-13 05:52:00,
2013-08-13 01:57:00,66.7,65.2,29.92,WNW,294,4.0,7.0,95,0.00,,,0.01,Wunderground v.1.15,2013-08-13 05:57:00,
2013-08-13 02:02:00,66.8,65.3,29.92,NW,307,3.0,10.0,95,0.00,,,0.01,Wunderground v.1.15,2013-08-13 06:02:00,
2013-08-13 02:07:00,66.6,65.1,29.92,NNW,338,2.0,10.0,95,0.00,,,0.01,Wunderground v.1.15,2013-08-13 06:07:00,
2013-08-13 02:12:00,66.5,65.0,29.92,WNW,298,2.0,11.0,95,0.00,,,0.01,Wunderground v.1.15,2013-08-13 06:12:00,
2013-08-13 02:17:00,66.2,64.7,29.92,West,269,3.0,11.0,95,0.00,,,0.01,Wunderground v.1.15,2013-08-13 06:17:00,
2013-08-13 02:22:00,66.0,64.5,29.92,WNW,294,3.0,11.0,95,0.00,,,0.01,Wunderground v.1.15,2013-08-13 06:22:00,
2013-08-13 02:27:00,65.9,64.1,29.92,WNW,283,3.0,11.0,94,0.00,,,0.01,Wunderground v.1.15,2013-08-13 06:27:00,
2013-08-13 02:32:00,65.9,64.4,29.92,WNW,286,2.0,10.0,95,0.00,,,0.01,Wunderground v.1.15,2013-08-13 06:32:00,
2013-08-13 02:37:00,65.8,64.0,29.91,WSW,248,10.0,10.0,94,0.00,,,0.01,Wunderground v.1.15,2013-08-13 06:37:00,
2013-08-13 02:42:00,65.8,64.0,29.91,NW,313,4.0,8.0,94,0.00,,,0.01,Wunderground v.1.15,2013-08-13 06:42:00,
2013-08-13 02:47:00,65.8,64.0,29.91,NW,319,4.0,11.0,94,0.00,,,0.01,Wunderground v.1.15,2013-08-13 06:47:00,
2013-08-13 02:52:00,65.9,63.8,29.91,NW,315,4.0,11.0,93,0.00,,,0.01,Wunderground v.1.15,2013-08-13 06:52:00,
2013-08-13 02:57:00,65.9,64.1,29.91,WNW,302,9.0,11.0,94,0.00,,,0.01,Wunderground v.1.15,2013-08-13 06:57:00,
2013-08-13 03:02:00,66.0,63.9,29.91,West,275,4.0,12.0,93,0.00,,,0.01,Wunderground v.1.15,2013-08-13 07:02:00,
2013-08-13 03:07:00,65.9,63.5,29.91,WNW,288,9.0,12.0,92,0.00,,,0.01,Wunderground v.1.15,2013-08-13 07:07:00,
2013-08-13 03:12:00,65.6,62.6,29.92,NNW,341,13.0,13.0,90,0.00,,,0.01,Wunderground v.1.15,2013-08-13 07:12:00,
2013-08-13 03:17:00,65.3,62.3,29.91,NNE,30,2.0,13.0,90,0.00,,,0.01,Wunderground v.1.15,2013-08-13 07:17:00,
2013-08-13 03:22:00,65.2,62.2,29.91,West,281,3.0,14.0,90,0.00,,,0.01,Wunderground v.1.15,2013-08-13 07:22:00,
2013-08-13 03:27:00,65.0,61.4,29.92,NW,317,3.0,14.0,88,0.00,,,0.01,Wunderground v.1.15,2013-08-13 07:27:00,
2013-08-13 03:32:00,64.9,61.6,29.92,North,9,3.0,9.0,89,0.00,,,0.01,Wunderground v.1.15,2013-08-13 07:32:00,
2013-08-13 03:37:00,64.9,61.6,29.92,NW,307,6.0,15.0,89,0.00,,,0.01,Wunderground v.1.15,2013-08-13 07:37:00,
2013-08-13 03:42:00,64.9,61.6,29.92,NNW,348,1.0,10.0,89,0.00,,,0.01,Wunderground v.1.15,2013-08-13 07:42:00,
2013-08-13 03:47:00,64.9,61.9,29.92,WNW,298,4.0,13.0,90,0.00,,,0.01,Wunderground v.1.15,2013-08-13 07:47:00,
2013-08-13 03:52:00,64.9,61.9,29.92,NNW,328,9.0,10.0,90,0.00,,,0.01,Wunderground v.1.15,2013-08-13 07:52:00,
2013-08-13 03:57:00,64.8,61.8,29.92,NW,315,5.0,12.0,90,0.00,,,0.01,Wunderground v.1.15,2013-08-13 07:57:00,
2013-08-13 04:02:00,64.8,62.4,29.92,West,281,7.0,13.0,92,0.00,,,0.01,Wunderground v.1.15,2013-08-13 08:02:00,
2013-08-13 04:07:00,64.8,62.1,29.92,NW,326,5.0,13.0,91,0.00,,,0.01,Wunderground v.1.15,2013-08-13 08:07:00,
2013-08-13 04:12:00,64.7,61.7,29.92,WNW,284,4.0,12.0,90,0.00,,,0.01,Wunderground v.1.15,2013-08-13 08:12:00,
2013-08-13 04:17:00,64.7,62.0,29.92,NW,307,4.0,15.0,91,0.00,,,0.01,Wunderground v.1.15,2013-08-13 08:17:00,
2013-08-13 04:22:00,64.6,62.2,29.92,NNW,339,10.0,12.0,92,0.00,,,0.01,Wunderground v.1.15,2013-08-13 08:22:00,
2013-08-13 04:27:00,64.4,61.7,29.92,WNW,284,10.0,12.0,91,0.00,,,0.01,Wunderground v.1.15,2013-08-13 08:27:00,
2013-08-13 04:32:00,64.4,61.7,29.92,WSW,237,7.0,12.0,91,0.00,,,0.01,Wunderground v.1.15,2013-08-13 08:32:00,
2013-08-13 04:37:00,64.3,61.3,29.93,WNW,299,5.0,14.0,90,0.00,,,0.01,Wunderground v.1.15,2013-08-13 08:37:00,
2013-08-13 04:42:00,64.3,61.3,29.93,WNW,298,4.0,10.0,90,0.00,,,0.01,Wunderground v.1.15,2013-08-13 08:42:00,
2013-08-13 04:47:00,64.2,61.2,29.93,WNW,284,7.0,12.0,90,0.00,,,0.01,Wunderground v.1.15,2013-08-13 08:47:00,
2013-08-13 04:52:00,64.1,61.4,29.93,WNW,285,7.0,13.0,91,0.00,,,0.01,Wunderground v.1.15,2013-08-13 08:52:00,
2013-08-13 04:57:00,63.9,61.2,29.93,West,274,8.0,13.0,91,0.00,,,0.01,Wunderground v.1.15,2013-08-13 08:57:00,
2013-08-13 05:02:00,63.7,61.0,29.93,West,275,3.0,13.0,91,0.00,,,0.01,Wunderground v.1.15,2013-08-13 09:02:00,
2013-08-13 05:07:00,63.5,60.5,29.94,WNW,290,5.0,13.0,90,0.00,,,0.01,Wunderground v.1.15,2013-08-13 09:07:00,
2013-08-13 05:12:00,63.3,59.7,29.94,West,263,5.0,15.0,88,0.00,,,0.01,Wunderground v.1.15,2013-08-13 09:12:00,
2013-08-13 05:17:00,63.1,59.5,29.94,NW,317,3.0,15.0,88,0.00,,,0.01,Wunderground v.1.15,2013-08-13 09:17:00,
2013-08-13 05:22:00,62.9,59.3,29.94,NW,310,6.0,13.0,88,0.00,,,0.01,Wunderground v.1.15,2013-08-13 09:22:00,
2013-08-13 05:28:00,62.7,59.1,29.94,NW,313,8.0,14.0,88,0.00,,,0.01,Wunderground v.1.15,2013-08-13 09:28:00,
2013-08-13 05:33:00,62.7,58.8,29.95,WNW,298,6.0,16.0,87,0.00,,,0.01,Wunderground v.1.15,2013-08-13 09:33:00,
2013-08-13 05:38:00,62.6,58.7,29.95,West,266,9.0,16.0,87,0.00,,,0.01,Wunderground v.1.15,2013-08-13 09:38:00,
2013-08-13 05:43:00,62.5,58.9,29.95,NW,323,5.0,14.0,88,0.00,,,0.01,Wunderground v.1.15,2013-08-13 09:43:00,
2013-08-13 05:48:00,62.3,58.4,29.95,WNW,288,10.0,14.0,87,0.00,,,0.01,Wunderground v.1.15,2013-08-13 09:48:00,
2013-08-13 05:53:00,62.2,58.3,29.95,West,269,13.0,14.0,87,0.00,,,0.01,Wunderground v.1.15,2013-08-13 09:53:00,
2013-08-13 05:58:00,62.3,58.4,29.95,WNW,296,5.0,14.0,87,0.00,,,0.01,Wunderground v.1.15,2013-08-13 09:58:00,
2013-08-13 06:03:00,62.2,58.3,29.95,West,271,3.0,13.0,87,0.00,,,0.01,Wunderground v.1.15,2013-08-13 10:03:00,
2013-08-13 06:08:00,62.1,57.5,29.95,West,278,4.0,13.0,85,0.00,,,0.01,Wunderground v.1.15,2013-08-13 10:08:00,
2013-08-13 06:13:00,61.9,58.0,29.95,West,271,12.0,13.0,87,0.00,,,0.01,Wunderground v.1.15,2013-08-13 10:13:00,
2013-08-13 06:18:00,61.7,57.1,29.95,NW,313,3.0,13.0,85,0.00,,,0.01,Wunderground v.1.15,2013-08-13 10:18:00,
2013-08-13 06:23:00,61.3,56.4,29.95,ENE,59,7.0,13.0,84,0.00,,,0.01,Wunderground v.1.15,2013-08-13 10:23:00,
2013-08-13 06:28:00,61.2,56.7,29.96,NNE,12,3.0,13.0,85,0.00,,,0.01,Wunderground v.1.15,2013-08-13 10:28:00,
2013-08-13 06:33:00,60.9,56.4,29.96,West,275,3.0,13.0,85,0.00,,,0.01,Wunderground v.1.15,2013-08-13 10:33:00,
2013-08-13 06:38:00,60.7,56.2,29.97,North,11,1.0,13.0,85,0.00,,,0.01,Wunderground v.1.15,2013-08-13 10:38:00,
2013-08-13 06:43:00,60.7,56.8,29.97,WNW,298,3.0,12.0,87,0.00,,,0.01,Wunderground v.1.15,2013-08-13 10:43:00,
2013-08-13 06:48:00,60.5,56.0,29.97,ESE,115,3.0,14.0,85,0.00,,,0.01,Wunderground v.1.15,2013-08-13 10:48:00,
2013-08-13 06:53:00,60.2,55.3,29.97,North,360,3.0,9.0,84,0.00,,,0.01,Wunderground v.1.15,2013-08-13 10:53:00,
2013-08-13 06:58:00,59.9,54.7,29.98,NW,325,7.0,16.0,83,0.00,,,0.01,Wunderground v.1.15,2013-08-13 10:58:00,
2013-08-13 07:03:00,59.9,55.1,29.98,WNW,299,2.0,13.0,84,0.00,,,0.01,Wunderground v.1.15,2013-08-13 11:03:00,
2013-08-13 07:08:00,59.8,55.0,29.98,NNE,13,0.0,13.0,84,0.00,,,0.01,Wunderground v.1.15,2013-08-13 11:08:00,
2013-08-13 07:13:00,59.7,55.2,29.98,NE,42,5.0,11.0,85,0.00,,,0.01,Wunderground v.1.15,2013-08-13 11:13:00,
2013-08-13 07:18:00,59.4,54.6,29.98,East,91,0.0,11.0,84,0.00,,,0.01,Wunderground v.1.15,2013-08-13 11:18:00,
2013-08-13 07:23:00,59.1,54.3,29.99,East,85,2.0,9.0,84,0.00,,,0.01,Wunderground v.1.15,2013-08-13 11:23:00,
2013-08-13 07:28:00,58.6,54.1,29.99,ESE,103,1.0,9.0,85,0.00,,,0.01,Wunderground v.1.15,2013-08-13 11:28:00,
2013-08-13 07:33:00,58.2,53.7,30.00,East,81,0.0,6.0,85,0.00,,,0.01,Wunderground v.1.15,2013-08-13 11:33:00,
2013-08-13 07:38:00,57.9,53.4,30.00,ENE,76,2.0,6.0,85,0.00,,,0.01,Wunderground v.1.15,2013-08-13 11:38:00,
2013-08-13 07:43:00,57.8,53.3,30.00,NNE,32,4.0,5.0,85,0.00,,,0.01,Wunderground v.1.15,2013-08-13 11:43:00,
2013-08-13 07:48:00,57.8,53.3,30.00,ENE,71,4.0,7.0,85,0.00,,,0.01,Wunderground v.1.15,2013-08-13 11:48:00,
2013-08-13 07:53:00,58.0,53.5,30.01,ESE,110,3.0,7.0,85,0.00,,,0.01,Wunderground v.1.15,2013-08-13 11:53:00,
2013-08-13 07:58:00,58.1,53.6,30.01,NW,321,3.0,8.0,85,0.00,,,0.01,Wunderground v.1.15,2013-08-13 11:58:00,
2013-08-13 08:03:00,58.1,53.3,30.01,SE,130,3.0,3.0,84,0.00,,,0.01,Wunderground v.1.15,2013-08-13 12:03:00,
2013-08-13 08:08:00,58.2,53.1,30.02,NNE,28,5.0,5.0,83,0.00,,,0.01,Wunderground v.1.15,2013-08-13 12:08:00,
2013-08-13 08:13:00,58.4,52.9,30.02,NE,44,3.0,10.0,82,0.00,,,0.01,Wunderground v.1.15,2013-08-13 12:13:00,
2013-08-13 08:18:00,58.5,53.0,30.02,ESE,105,0.0,2.0,82,0.00,,,0.01,Wunderground v.1.15,2013-08-13 12:18:00,
2013-08-13 08:23:00,58.8,53.3,30.03,NNW,327,9.0,14.0,82,0.00,,,0.01,Wunderground v.1.15,2013-08-13 12:23:00,
2013-08-13 08:28:00,59.1,53.6,30.03,North,11,0.0,4.0,82,0.00,,,0.01,Wunderground v.1.15,2013-08-13 12:28:00,
2013-08-13 08:33:00,59.4,53.6,30.03,East,93,2.0,8.0,81,0.00,,,0.01,Wunderground v.1.15,2013-08-13 12:33:00,
2013-08-13 08:38:00,59.4,53.6,30.03,NE,52,2.0,3.0,81,0.00,,,0.01,Wunderground v.1.15,2013-08-13 12:38:00,
2013-08-13 08:43:00,59.3,53.1,30.04,NNW,341,3.0,13.0,80,0.00,,,0.01,Wunderground v.1.15,2013-08-13 12:43:00,
2013-08-13 08:48:00,59.5,53.7,30.04,North,360,6.0,6.0,81,0.00,,,0.01,Wunderground v.1.15,2013-08-13 12:48:00,
2013-08-13 08:53:00,59.6,53.1,30.04,SE,145,3.0,15.0,79,0.00,,,0.01,Wunderground v.1.15,2013-08-13 12:53:00,
2013-08-13 08:58:00,59.6,53.1,30.04,ESE,105,4.0,5.0,79,0.00,,,0.01,Wunderground v.1.15,2013-08-13 12:58:00,
2013-08-13 09:03:00,59.7,53.5,30.04,NW,325,2.0,10.0,80,0.00,,,0.01,Wunderground v.1.15,2013-08-13 13:03:00,
2013-08-13 09:08:00,60.3,54.1,30.04,NNW,339,9.0,9.0,80,0.00,,,0.01,Wunderground v.1.15,2013-08-13 13:08:00,
2013-08-13 09:13:00,60.0,53.5,30.04,NNW,336,11.0,13.0,79,0.00,,,0.01,Wunderground v.1.15,2013-08-13 13:13:00,
2013-08-13 09:18:00,60.1,53.6,30.04,WNW,295,2.0,4.0,79,0.00,,,0.01,Wunderground v.1.15,2013-08-13 13:18:00,
2013-08-13 09:23:00,60.3,53.1,30.04,NW,313,6.0,11.0,77,0.00,,,0.01,Wunderground v.1.15,2013-08-13 13:23:00,
2013-08-13 09:28:00,60.3,52.7,30.04,East,80,2.0,5.0,76,0.00,,,0.01,Wunderground v.1.15,2013-08-13 13:28:00,
2013-08-13 09:33:00,60.2,53.0,30.03,NNE,30,6.0,11.0,77,0.00,,,0.01,Wunderground v.1.15,2013-08-13 13:33:00,
2013-08-13 09:38:00,60.0,52.8,30.03,NE,36,4.0,9.0,77,0.00,,,0.01,Wunderground v.1.15,2013-08-13 13:38:00,
2013-08-13 09:43:00,60.2,53.0,30.04,NW,308,2.0,11.0,77,0.00,,,0.01,Wunderground v.1.15,2013-08-13 13:43:00,
2013-08-13 09:48:00,60.2,53.0,30.04,ESE,115,6.0,6.0,77,0.00,,,0.01,Wunderground v.1.15,2013-08-13 13:48:00,
2013-08-13 09:53:00,60.5,52.2,30.03,NNW,346,9.0,12.0,74,0.00,,,0.01,Wunderground v.1.15,2013-08-13 13:53:00,
2013-08-13 09:58:00,59.9,52.0,30.04,NNE,24,13.0,14.0,75,0.00,,,0.01,Wunderground v.1.15,2013-08-13 13:58:00,
2013-08-13 10:03:00,59.8,51.9,30.04,ENE,74,4.0,14.0,75,0.00,,,0.01,Wunderground v.1.15,2013-08-13 14:03:00,
2013-08-13 10:08:00,60.3,50.9,30.04,NNE,31,12.0,12.0,71,0.00,,,0.01,Wunderground v.1.15,2013-08-13 14:08:00,
2013-08-13 10:13:00,60.6,51.5,30.04,ESE,102,2.0,12.0,72,0.00,,,0.01,Wunderground v.1.15,2013-08-13 14:13:00,
2013-08-13 10:18:00,60.4,50.6,30.03,ESE,103,2.0,3.0,70,0.00,,,0.01,Wunderground v.1.15,2013-08-13 14:18:00,
2013-08-13 10:24:00,60.9,49.9,30.04,West,269,3.0,7.0,67,0.00,,,0.01,Wunderground v.1.15,2013-08-13 14:24:00,
2013-08-13 10:29:00,61.0,50.4,30.04,East,92,2.0,3.0,68,0.00,,,0.01,Wunderground v.1.15,2013-08-13 14:29:00,
2013-08-13 10:34:00,61.0,50.4,30.04,North,360,6.0,11.0,68,0.00,,,0.01,Wunderground v.1.15,2013-08-13 14:34:00,
2013-08-13 10:39:00,60.8,50.6,30.04,NNW,344,3.0,3.0,69,0.00,,,0.01,Wunderground v.1.15,2013-08-13 14:39:00,
2013-08-13 10:44:00,60.8,51.0,30.05,WNW,300,9.0,13.0,70,0.00,,,0.01,Wunderground v.1.15,2013-08-13 14:44:00,
2013-08-13 10:49:00,60.5,50.7,30.05,NNW,341,3.0,10.0,70,0.00,,,0.01,Wunderground v.1.15,2013-08-13 14:49:00,
2013-08-13 10:54:00,60.9,51.0,30.05,NW,314,2.0,12.0,70,0.00,,,0.01,Wunderground v.1.15,2013-08-13 14:54:00,
2013-08-13 10:59:00,60.8,51.3,30.06,SW,225,9.0,9.0,71,0.00,,,0.01,Wunderground v.1.15,2013-08-13 14:59:00,
2013-08-13 11:04:00,60.7,51.2,30.06,NNW,333,12.0,16.0,71,0.00,,,0.01,Wunderground v.1.15,2013-08-13 15:04:00,
2013-08-13 11:09:00,60.8,51.7,30.06,East,84,6.0,8.0,72,0.00,,,0.01,Wunderground v.1.15,2013-08-13 15:09:00,
2013-08-13 11:14:00,60.8,52.5,30.06,NW,313,6.0,21.0,74,0.00,,,0.01,Wunderground v.1.15,2013-08-13 15:14:00,
2013-08-13 11:19:00,61.0,51.9,30.06,WNW,285,10.0,10.0,72,0.00,,,0.01,Wunderground v.1.15,2013-08-13 15:19:00,
2013-08-13 11:24:00,61.1,52.4,30.06,North,355,9.0,11.0,73,0.00,,,0.01,Wunderground v.1.15,2013-08-13 15:24:00,
2013-08-13 11:29:00,61.2,53.2,30.06,NNW,333,6.0,17.0,75,0.00,,,0.01,Wunderground v.1.15,2013-08-13 15:29:00,
2013-08-13 11:34:00,61.3,52.6,30.07,WNW,295,3.0,17.0,73,0.00,,,0.01,Wunderground v.1.15,2013-08-13 15:34:00,
2013-08-13 11:39:00,61.4,52.7,30.07,NNW,346,6.0,10.0,73,0.00,,,0.01,Wunderground v.1.15,2013-08-13 15:39:00,
2013-08-13 11:44:00,61.2,53.2,30.07,West,268,5.0,13.0,75,0.00,,,0.01,Wunderground v.1.15,2013-08-13 15:44:00,
2013-08-13 11:49:00,61.2,52.8,30.07,NNW,340,5.0,10.0,74,0.00,,,0.01,Wunderground v.1.15,2013-08-13 15:49:00,
2013-08-13 11:54:00,61.3,52.6,30.07,North,9,4.0,12.0,73,0.00,,,0.01,Wunderground v.1.15,2013-08-13 15:54:00,
2013-08-13 11:59:00,61.4,53.0,30.08,North,355,9.0,9.0,74,0.00,,,0.01,Wunderground v.1.15,2013-08-13 15:59:00,
2013-08-13 12:04:00,61.2,53.2,30.08,ENE,57,2.0,17.0,75,0.00,,,0.01,Wunderground v.1.15,2013-08-13 16:04:00,
2013-08-13 12:09:00,61.6,52.5,30.08,WNW,290,4.0,10.0,72,0.00,,,0.01,Wunderground v.1.15,2013-08-13 16:09:00,
2013-08-13 12:14:00,61.5,52.8,30.08,West,268,6.0,14.0,73,0.00,,,0.01,Wunderground v.1.15,2013-08-13 16:14:00,
2013-08-13 12:19:00,61.3,52.6,30.08,NE,46,3.0,9.0,73,0.00,,,0.01,Wunderground v.1.15,2013-08-13 16:19:00,
2013-08-13 12:24:00,61.7,53.3,30.08,NNW,342,4.0,9.0,74,0.00,,,0.01,Wunderground v.1.15,2013-08-13 16:24:00,
2013-08-13 12:29:00,61.5,53.5,30.08,WNW,288,4.0,6.0,75,0.00,,,0.01,Wunderground v.1.15,2013-08-13 16:29:00,
2013-08-13 12:34:00,61.5,52.8,30.08,NE,44,4.0,15.0,73,0.00,,,0.01,Wunderground v.1.15,2013-08-13 16:34:00,
2013-08-13 12:39:00,61.5,53.5,30.08,NNW,327,6.0,10.0,75,0.00,,,0.01,Wunderground v.1.15,2013-08-13 16:39:00,
2013-08-13 12:44:00,61.5,53.1,30.08,West,277,3.0,11.0,74,0.00,,,0.01,Wunderground v.1.15,2013-08-13 16:44:00,
2013-08-13 12:45:00,61.5,53.5,30.09,WNW,298,5.0,11.0,75,0.00,,,0.01,Wunderground v.1.15,2013-08-13 16:45:00,
2013-08-13 12:50:00,61.8,53.1,30.09,NNW,331,1.0,10.0,73,0.00,,,0.01,Wunderground v.1.15,2013-08-13 16:50:00,
2013-08-13 12:55:00,61.7,53.0,30.09,NNW,336,5.0,12.0,73,0.00,,,0.01,Wunderground v.1.15,2013-08-13 16:55:00,
2013-08-13 13:00:00,62.4,55.1,30.09,NW,309,7.0,7.0,77,0.00,,,0.01,Wunderground v.1.15,2013-08-13 17:00:00,
2013-08-13 13:05:00,62.5,54.8,30.09,WNW,283,4.0,15.0,76,0.00,,,0.01,Wunderground v.1.15,2013-08-13 17:05:00,
2013-08-13 13:12:00,63.3,56.3,30.09,NW,304,3.0,9.0,78,0.00,,,0.01,Wunderground v.1.15,2013-08-13 17:12:00,
2013-08-13 13:17:00,63.4,54.6,30.09,NW,306,10.0,11.0,73,0.00,,,0.01,Wunderground v.1.15,2013-08-13 17:17:00,
2013-08-13 13:22:00,62.7,54.3,30.09,WNW,292,4.0,10.0,74,0.00,,,0.01,Wunderground v.1.15,2013-08-13 17:22:00,
2013-08-13 13:27:00,63.3,55.6,30.09,WNW,286,4.0,10.0,76,0.00,,,0.01,Wunderground v.1.15,2013-08-13 17:27:00,
2013-08-13 13:32:00,62.9,54.5,30.09,WNW,288,4.0,12.0,74,0.00,,,0.01,Wunderground v.1.15,2013-08-13 17:32:00,
2013-08-13 13:37:00,63.3,55.6,30.09,West,270,3.0,13.0,76,0.00,,,0.01,Wunderground v.1.15,2013-08-13 17:37:00,
2013-08-13 13:42:00,64.3,56.9,30.09,NNW,331,4.0,12.0,77,0.00,,,0.01,Wunderground v.1.15,2013-08-13 17:42:00,
2013-08-13 13:47:00,64.1,56.0,30.09,WNW,292,3.0,12.0,75,0.00,,,0.01,Wunderground v.1.15,2013-08-13 17:47:00,
2013-08-13 13:52:00,63.8,54.6,30.09,NNW,341,1.0,7.0,72,0.00,,,0.01,Wunderground v.1.15,2013-08-13 17:52:00,
2013-08-13 13:57:00,63.6,55.5,30.09,WNW,300,2.0,11.0,75,0.00,,,0.01,Wunderground v.1.15,2013-08-13 17:57:00,
2013-08-13 14:02:00,64.4,55.6,30.09,North,360,2.0,7.0,73,0.00,,,0.01,Wunderground v.1.15,2013-08-13 18:02:00,
2013-08-13 14:07:00,63.9,53.9,30.09,WNW,300,2.0,12.0,70,0.00,,,0.01,Wunderground v.1.15,2013-08-13 18:07:00,
2013-08-13 14:12:00,64.4,57.4,30.09,WSW,257,1.0,7.0,78,0.00,,,0.01,Wunderground v.1.15,2013-08-13 18:12:00,
2013-08-13 14:17:00,64.5,56.4,30.09,WNW,293,2.0,7.0,75,0.00,,,0.01,Wunderground v.1.15,2013-08-13 18:17:00,
2013-08-13 14:22:00,64.8,55.2,30.09,NW,312,2.0,9.0,71,0.00,,,0.01,Wunderground v.1.15,2013-08-13 18:22:00,
2013-08-13 14:27:00,64.4,56.3,30.09,West,275,5.0,9.0,75,0.00,,,0.01,Wunderground v.1.15,2013-08-13 18:27:00,
2013-08-13 14:32:00,65.5,55.5,30.09,West,277,4.0,11.0,70,0.00,,,0.01,Wunderground v.1.15,2013-08-13 18:32:00,
2013-08-13 14:37:00,65.3,57.2,30.09,WNW,286,2.0,11.0,75,0.00,,,0.01,Wunderground v.1.15,2013-08-13 18:37:00,
2013-08-13 14:42:00,65.6,55.5,30.09,NNW,335,2.0,6.0,70,0.00,,,0.01,Wunderground v.1.15,2013-08-13 18:42:00,
2013-08-13 14:47:00,65.7,56.4,30.09,WNW,297,4.0,6.0,72,0.00,,,0.01,Wunderground v.1.15,2013-08-13 18:47:00,
2013-08-13 14:52:00,65.7,56.0,30.09,WNW,302,6.0,9.0,71,0.00,,,0.01,Wunderground v.1.15,2013-08-13 18:52:00,
2013-08-13 14:57:00,65.3,56.8,30.09,WNW,285,3.0,13.0,74,0.00,,,0.01,Wunderground v.1.15,2013-08-13 18:57:00,
2013-08-13 15:02:00,65.4,55.7,30.09,NNW,334,4.0,12.0,71,0.00,,,0.01,Wunderground v.1.15,2013-08-13 19:02:00,
2013-08-13 15:07:00,65.6,55.9,30.09,West,280,4.0,12.0,71,0.00,,,0.01,Wunderground v.1.15,2013-08-13 19:07:00,
2013-08-13 15:12:00,65.5,56.2,30.09,WNW,292,4.0,9.0,72,0.00,,,0.01,Wunderground v.1.15,2013-08-13 19:12:00,
2013-08-13 15:17:00,65.1,56.6,30.09,West,272,6.0,10.0,74,0.00,,,0.01,Wunderground v.1.15,2013-08-13 19:17:00,
2013-08-13 15:22:00,65.5,56.6,30.09,WNW,286,5.0,8.0,73,0.00,,,0.01,Wunderground v.1.15,2013-08-13 19:22:00,
2013-08-13 15:27:00,65.4,56.9,30.08,West,274,2.0,12.0,74,0.00,,,0.01,Wunderground v.1.15,2013-08-13 19:27:00,
2013-08-13 15:32:00,65.2,56.3,30.08,WNW,292,3.0,10.0,73,0.00,,,0.01,Wunderground v.1.15,2013-08-13 19:32:00,
2013-08-13 15:37:00,65.7,57.6,30.08,WNW,289,4.0,10.0,75,0.00,,,0.01,Wunderground v.1.15,2013-08-13 19:37:00,
2013-08-13 15:42:00,66.0,57.1,30.09,WNW,288,2.0,10.0,73,0.00,,,0.01,Wunderground v.1.15,2013-08-13 19:42:00,
2013-08-13 15:47:00,65.9,56.2,30.09,NW,311,4.0,10.0,71,0.00,,,0.01,Wunderground v.1.15,2013-08-13 19:47:00,
2013-08-13 15:52:00,66.1,57.2,30.09,NW,304,6.0,7.0,73,0.00,,,0.01,Wunderground v.1.15,2013-08-13 19:52:00,
2013-08-13 15:57:00,66.3,56.6,30.09,WNW,292,4.0,9.0,71,0.00,,,0.01,Wunderground v.1.15,2013-08-13 19:57:00,
2013-08-13 16:02:00,65.9,56.6,30.09,WNW,298,4.0,9.0,72,0.00,,,0.01,Wunderground v.1.15,2013-08-13 20:02:00,
2013-08-13 16:07:00,66.2,57.3,30.09,West,264,4.0,12.0,73,0.00,,,0.01,Wunderground v.1.15,2013-08-13 20:07:00,
2013-08-13 16:13:00,66.1,56.4,30.09,West,267,4.0,9.0,71,0.00,,,0.01,Wunderground v.1.15,2013-08-13 20:13:00,
2013-08-13 16:18:00,66.2,57.7,30.09,WNW,284,8.0,10.0,74,0.00,,,0.01,Wunderground v.1.15,2013-08-13 20:18:00,
2013-08-13 16:23:00,65.9,56.2,30.09,WNW,292,5.0,7.0,71,0.00,,,0.01,Wunderground v.1.15,2013-08-13 20:23:00,
2013-08-13 16:28:00,65.7,56.4,30.09,NNW,328,5.0,12.0,72,0.00,,,0.01,Wunderground v.1.15,2013-08-13 20:28:00,
2013-08-13 16:33:00,65.2,56.3,30.09,NW,313,4.0,12.0,73,0.00,,,0.01,Wunderground v.1.15,2013-08-13 20:33:00,
2013-08-13 16:38:00,65.5,56.6,30.09,West,263,10.0,13.0,73,0.00,,,0.01,Wunderground v.1.15,2013-08-13 20:38:00,
2013-08-13 16:43:00,64.6,56.9,30.09,West,273,9.0,11.0,76,0.00,,,0.01,Wunderground v.1.15,2013-08-13 20:43:00,
2013-08-13 16:48:00,65.2,56.7,30.09,WSW,242,12.0,12.0,74,0.00,,,0.01,Wunderground v.1.15,2013-08-13 20:48:00,
2013-08-13 16:53:00,65.1,56.2,30.09,West,276,5.0,12.0,73,0.00,,,0.01,Wunderground v.1.15,2013-08-13 20:53:00,
2013-08-13 16:58:00,64.6,56.5,30.09,West,262,7.0,15.0,75,0.00,,,0.01,Wunderground v.1.15,2013-08-13 20:58:00,
2013-08-13 17:03:00,63.9,55.1,30.09,West,281,10.0,15.0,73,0.00,,,0.01,Wunderground v.1.15,2013-08-13 21:03:00,
2013-08-13 17:08:00,64.2,56.1,30.09,West,272,6.0,15.0,75,0.00,,,0.01,Wunderground v.1.15,2013-08-13 21:08:00,
2013-08-13 17:13:00,64.7,55.8,30.09,NW,311,4.0,10.0,73,0.00,,,0.01,Wunderground v.1.15,2013-08-13 21:13:00,
2013-08-13 17:18:00,63.7,55.3,30.09,WNW,293,13.0,16.0,74,0.00,,,0.01,Wunderground v.1.15,2013-08-13 21:18:00,
2013-08-13 17:23:00,63.4,55.3,30.09,WNW,284,17.0,17.0,75,0.00,,,0.01,Wunderground v.1.15,2013-08-13 21:23:00,
2013-08-13 17:28:00,63.9,55.1,30.09,West,273,6.0,17.0,73,0.00,,,0.01,Wunderground v.1.15,2013-08-13 21:28:00,
2013-08-13 17:33:00,64.0,55.5,30.09,WNW,285,3.0,14.0,74,0.00,,,0.01,Wunderground v.1.15,2013-08-13 21:33:00,
2013-08-13 17:38:00,64.8,55.9,30.09,WSW,255,6.0,14.0,73,0.00,,,0.01,Wunderground v.1.15,2013-08-13 21:38:00,
2013-08-13 17:43:00,65.2,55.9,30.09,WNW,288,7.0,11.0,72,0.00,,,0.01,Wunderground v.1.15,2013-08-13 21:43:00,
2013-08-13 17:48:00,64.8,55.2,30.09,WNW,303,6.0,14.0,71,0.00,,,0.01,Wunderground v.1.15,2013-08-13 21:48:00,
2013-08-13 17:53:00,64.4,55.9,30.09,West,267,7.0,12.0,74,0.00,,,0.01,Wunderground v.1.15,2013-08-13 21:53:00,
2013-08-13 17:58:00,64.4,55.2,30.09,West,279,5.0,13.0,72,0.00,,,0.01,Wunderground v.1.15,2013-08-13 21:58:00,
2013-08-13 18:03:00,64.0,54.4,30.09,WNW,282,11.0,13.0,71,0.00,,,0.01,Wunderground v.1.15,2013-08-13 22:03:00,
2013-08-13 18:08:00,63.4,55.0,30.09,WNW,292,14.0,15.0,74,0.00,,,0.01,Wunderground v.1.15,2013-08-13 22:08:00,
2013-08-13 18:13:00,63.0,54.9,30.09,WNW,299,10.0,16.0,75,0.00,,,0.01,Wunderground v.1.15,2013-08-13 22:13:00,
2013-08-13 18:18:00,63.8,55.4,30.09,WNW,286,5.0,16.0,74,0.00,,,0.01,Wunderground v.1.15,2013-08-13 22:18:00,
2013-08-13 18:23:00,63.9,55.8,30.09,WNW,289,7.0,11.0,75,0.00,,,0.01,Wunderground v.1.15,2013-08-13 22:23:00,
2013-08-13 18:28:00,63.7,55.6,30.09,West,276,7.0,14.0,75,0.00,,,0.01,Wunderground v.1.15,2013-08-13 22:28:00,
2013-08-13 18:33:00,63.5,55.4,30.09,WNW,293,11.0,12.0,75,0.00,,,0.01,Wunderground v.1.15,2013-08-13 22:33:00,
2013-08-13 18:38:00,63.3,55.2,30.09,West,281,2.0,12.0,75,0.00,,,0.01,Wunderground v.1.15,2013-08-13 22:38:00,
2013-08-13 18:43:00,64.3,55.5,30.09,West,277,5.0,13.0,73,0.00,,,0.01,Wunderground v.1.15,2013-08-13 22:43:00,
2013-08-13 18:48:00,63.6,55.5,30.09,NW,315,6.0,13.0,75,0.00,,,0.01,Wunderground v.1.15,2013-08-13 22:48:00,
2013-08-13 18:53:00,64.1,56.4,30.09,WNW,284,4.0,10.0,76,0.00,,,0.01,Wunderground v.1.15,2013-08-13 22:53:00,
2013-08-13 18:58:00,64.6,56.9,30.09,NW,319,2.0,10.0,76,0.00,,,0.01,Wunderground v.1.15,2013-08-13 22:58:00,
2013-08-13 19:03:00,64.6,57.2,30.09,WNW,283,2.0,10.0,77,0.00,,,0.01,Wunderground v.1.15,2013-08-13 23:03:00,
2013-08-13 19:08:00,64.8,57.4,30.09,West,271,3.0,10.0,77,0.00,,,0.01,Wunderground v.1.15,2013-08-13 23:08:00,
2013-08-13 19:13:00,65.0,56.9,30.09,NW,306,3.0,5.0,75,0.00,,,0.01,Wunderground v.1.15,2013-08-13 23:13:00,
2013-08-13 19:18:00,65.1,56.2,30.09,WNW,289,2.0,6.0,73,0.00,,,0.01,Wunderground v.1.15,2013-08-13 23:18:00,
2013-08-13 19:23:00,64.8,55.9,30.09,WNW,284,2.0,7.0,73,0.00,,,0.01,Wunderground v.1.15,2013-08-13 23:23:00,
2013-08-13 19:28:00,64.6,56.1,30.09,WNW,288,2.0,7.0,74,0.00,,,0.01,Wunderground v.1.15,2013-08-13 23:28:00,
2013-08-13 19:33:00,64.7,56.6,30.09,WNW,290,2.0,6.0,75,0.00,,,0.01,Wunderground v.1.15,2013-08-13 23:33:00,
2013-08-13 19:38:00,64.3,55.8,30.09,WNW,285,5.0,9.0,74,0.00,,,0.01,Wunderground v.1.15,2013-08-13 23:38:00,
2013-08-13 19:43:00,63.9,55.1,30.09,WNW,292,2.0,5.0,73,0.00,,,0.01,Wunderground v.1.15,2013-08-13 23:43:00,
2013-08-13 19:48:00,63.8,56.4,30.09,NW,321,3.0,5.0,77,0.00,,,0.01,Wunderground v.1.15,2013-08-13 23:48:00,
2013-08-13 19:53:00,63.5,55.4,30.09,West,275,7.0,12.0,75,0.00,,,0.01,Wunderground v.1.15,2013-08-13 23:53:00,
2013-08-13 19:58:00,63.3,56.0,30.09,NW,317,5.0,12.0,77,0.00,,,0.01,Wunderground v.1.15,2013-08-13 23:58:00,
2013-08-13 20:03:00,63.3,55.6,30.09,West,280,0.0,10.0,76,0.00,,,0.01,Wunderground v.1.15,2013-08-14 00:03:00,
2013-08-13 20:08:00,63.1,55.8,30.09,West,263,1.0,10.0,77,0.00,,,0.01,Wunderground v.1.15,2013-08-14 00:08:00,
2013-08-13 20:13:00,62.7,55.4,30.09,WNW,294,3.0,10.0,77,0.00,,,0.01,Wunderground v.1.15,2013-08-14 00:13:00,
2013-08-13 20:18:00,62.5,56.2,30.09,WNW,292,3.0,10.0,80,0.00,,,0.01,Wunderground v.1.15,2013-08-14 00:18:00,
2013-08-13 20:23:00,62.2,55.6,30.09,NNW,329,5.0,9.0,79,0.00,,,0.01,Wunderground v.1.15,2013-08-14 00:23:00,
2013-08-13 20:28:00,62.1,56.5,30.09,NNW,328,1.0,9.0,82,0.00,,,0.01,Wunderground v.1.15,2013-08-14 00:28:00,
2013-08-13 20:33:00,61.7,55.1,30.09,West,271,3.0,11.0,79,0.00,,,0.01,Wunderground v.1.15,2013-08-14 00:33:00,
2013-08-13 20:38:00,61.3,54.0,30.09,NW,323,3.0,13.0,77,0.00,,,0.01,Wunderground v.1.15,2013-08-14 00:38:00,
2013-08-13 20:43:00,61.2,55.3,30.09,West,270,1.0,10.0,81,0.00,,,0.01,Wunderground v.1.15,2013-08-14 00:43:00,
2013-08-13 20:48:00,60.9,55.0,30.09,WSW,250,10.0,10.0,81,0.00,,,0.01,Wunderground v.1.15,2013-08-14 00:48:00,
2013-08-13 20:53:00,60.8,54.6,30.09,WNW,292,3.0,10.0,80,0.00,,,0.01,Wunderground v.1.15,2013-08-14 00:53:00,
2013-08-13 20:58:00,60.7,54.8,30.09,West,281,2.0,4.0,81,0.00,,,0.01,Wunderground v.1.15,2013-08-14 00:58:00,
2013-08-13 21:03:00,60.6,54.0,30.09,NW,306,4.0,15.0,79,0.00,,,0.01,Wunderground v.1.15,2013-08-14 01:03:00,
2013-08-13 21:08:00,60.7,54.5,30.09,NW,316,7.0,7.0,80,0.00,,,0.01,Wunderground v.1.15,2013-08-14 01:08:00,
2013-08-13 21:13:00,60.5,54.3,30.09,NW,319,4.0,11.0,80,0.00,,,0.01,Wunderground v.1.15,2013-08-14 01:13:00,
2013-08-13 21:18:00,60.5,53.3,30.09,NNW,344,3.0,5.0,77,0.00,,,0.01,Wunderground v.1.15,2013-08-14 01:18:00,
2013-08-13 21:23:00,60.5,52.9,30.09,North,350,9.0,11.0,76,0.00,,,0.01,Wunderground v.1.15,2013-08-14 01:23:00,
2013-08-13 21:28:00,60.5,54.0,30.09,West,266,5.0,6.0,79,0.00,,,0.01,Wunderground v.1.15,2013-08-14 01:28:00,
2013-08-13 21:33:00,60.4,53.9,30.10,WNW,284,3.0,10.0,79,0.00,,,0.01,Wunderground v.1.15,2013-08-14 01:33:00,
2013-08-13 21:38:00,60.3,53.4,30.10,NNW,329,9.0,9.0,78,0.00,,,0.01,Wunderground v.1.15,2013-08-14 01:38:00,
2013-08-13 21:43:00,60.3,53.8,30.10,NNW,338,5.0,15.0,79,0.00,,,0.01,Wunderground v.1.15,2013-08-14 01:43:00,
2013-08-13 21:48:00,60.2,54.0,30.10,NW,306,3.0,5.0,80,0.00,,,0.01,Wunderground v.1.15,2013-08-14 01:48:00,
2013-08-13 21:53:00,60.0,53.8,30.10,NNW,342,2.0,8.0,80,0.00,,,0.01,Wunderground v.1.15,2013-08-14 01:53:00,
2013-08-13 21:58:00,60.1,54.2,30.10,NNW,348,2.0,4.0,81,0.00,,,0.01,Wunderground v.1.15,2013-08-14 01:58:00,
2013-08-13 22:03:00,60.0,53.8,30.10,North,360,7.0,9.0,80,0.00,,,0.01,Wunderground v.1.15,2013-08-14 02:03:00,
2013-08-13 22:08:00,59.9,53.7,30.11,NNW,333,10.0,10.0,80,0.00,,,0.01,Wunderground v.1.15,2013-08-14 02:08:00,
2013-08-13 22:13:00,60.0,53.5,30.11,WNW,294,4.0,12.0,79,0.00,,,0.01,Wunderground v.1.15,2013-08-14 02:13:00,
2013-08-13 22:19:00,60.0,54.2,30.11,NW,304,5.0,5.0,81,0.00,,,0.01,Wunderground v.1.15,2013-08-14 02:19:00,
2013-08-13 22:24:00,59.8,54.0,30.11,NNW,342,3.0,11.0,81,0.00,,,0.01,Wunderground v.1.15,2013-08-14 02:24:00,
2013-08-13 22:29:00,59.8,54.3,30.11,ENE,71,1.0,5.0,82,0.00,,,0.01,Wunderground v.1.15,2013-08-14 02:29:00,
2013-08-13 22:34:00,59.8,54.0,30.11,NNE,13,4.0,11.0,81,0.00,,,0.01,Wunderground v.1.15,2013-08-14 02:34:00,
2013-08-13 22:39:00,59.8,54.0,30.12,NNE,22,1.0,9.0,81,0.00,,,0.01,Wunderground v.1.15,2013-08-14 02:39:00,
2013-08-13 22:44:00,59.7,53.9,30.12,ENE,63,0.0,10.0,81,0.00,,,0.01,Wunderground v.1.15,2013-08-14 02:44:00,
2013-08-13 22:49:00,59.6,53.8,30.12,NNW,333,0.0,5.0,81,0.00,,,0.01,Wunderground v.1.15,2013-08-14 02:49:00,
2013-08-13 22:54:00,59.5,53.3,30.12,NW,318,2.0,7.0,80,0.00,,,0.01,Wunderground v.1.15,2013-08-14 02:54:00,
2013-08-13 22:59:00,59.5,52.6,30.12,NNW,338,0.0,5.0,78,0.00,,,0.01,Wunderground v.1.15,2013-08-14 02:59:00,
2013-08-13 23:04:00,59.4,52.2,30.12,East,84,0.0,7.0,77,0.00,,,0.01,Wunderground v.1.15,2013-08-14 03:04:00,
2013-08-13 23:09:00,59.5,51.9,30.12,NNW,329,2.0,11.0,76,0.00,,,0.01,Wunderground v.1.15,2013-08-14 03:09:00,
2013-08-13 23:14:00,59.5,52.3,30.12,NW,315,1.0,11.0,77,0.00,,,0.01,Wunderground v.1.15,2013-08-14 03:14:00,
2013-08-13 23:19:00,59.3,51.7,30.13,NNW,327,1.0,7.0,76,0.00,,,0.01,Wunderground v.1.15,2013-08-14 03:19:00,
2013-08-13 23:24:00,59.3,52.1,30.13,NNW,338,3.0,7.0,77,0.00,,,0.01,Wunderground v.1.15,2013-08-14 03:24:00,
2013-08-13 23:29:00,59.3,52.4,30.13,NW,311,6.0,6.0,78,0.00,,,0.01,Wunderground v.1.15,2013-08-14 03:29:00,
2013-08-13 23:34:00,59.0,52.5,30.13,NNW,331,4.0,7.0,79,0.00,,,0.01,Wunderground v.1.15,2013-08-14 03:34:00,
2013-08-13 23:39:00,59.0,52.5,30.13,NNE,15,0.0,3.0,79,0.00,,,0.01,Wunderground v.1.15,2013-08-14 03:39:00,
2013-08-13 23:44:00,58.9,52.1,30.13,North,9,2.0,6.0,78,0.00,,,0.01,Wunderground v.1.15,2013-08-14 03:44:00,
2013-08-13 23:49:00,59.0,51.4,30.13,ENE,71,0.0,4.0,76,0.00,,,0.01,Wunderground v.1.15,2013-08-14 03:49:00,
2013-08-13 23:54:00,59.1,50.8,30.13,East,91,4.0,6.0,74,0.00,,,0.01,Wunderground v.1.15,2013-08-14 03:54:00,
2013-08-13 23:59:00,59.3,50.6,30.13,SE,140,0.0,2.0,73,0.00,,,0.01,Wunderground v.1.15,2013-08-14 03:59:00,